Time;durP1;ratioP1;P1;durP2;ratioP2;P2;SDS_P1;SDS_P2;PMS_P1;PMS_P2;Temp;Humidity;BMP_temperature;BMP_pressure;BME280_temperature;BME280_humidity;BME280_pressure;Samples;Min_cycle;Max_cycle;Signal;HPM_P1;HPM_P2
2022/09/17 00:01:09;;;;;;;5.33;1.30;;;;;;;8.95;100.00;99677.50;5014672;28;20380;-72
2022/09/17 00:03:35;;;;;;;5.30;1.40;;;;;;;8.76;100.00;99680.22;5015328;28;20277;-71
2022/09/17 00:06:08;;;;;;;2.97;1.60;;;;;;;8.74;100.00;99676.91;5021319;28;20263;-69
2022/09/17 00:08:35;;;;;;;3.90;1.10;;;;;;;8.75;100.00;99676.03;5012335;28;20197;-70
2022/09/17 00:11:15;;;;;;;6.57;2.20;;;;;;;8.71;100.00;99670.22;5000575;28;20333;-68
2022/09/17 00:13:43;;;;;;;3.87;1.40;;;;;;;8.80;100.00;99677.41;5010249;28;20627;-78
2022/09/17 00:16:11;;;;;;;4.30;1.37;;;;;;;8.68;100.00;99678.06;5015698;28;20290;-71
2022/09/17 00:18:40;;;;;;;4.17;1.13;;;;;;;8.75;100.00;99679.41;5014035;28;20214;-71
2022/09/17 00:21:06;;;;;;;5.93;1.70;;;;;;;8.76;100.00;99678.50;5014025;28;20755;-69
2022/09/17 00:23:31;;;;;;;7.73;2.03;;;;;;;8.75;100.00;99678.59;5005944;28;20194;-68
2022/09/17 00:25:58;;;;;;;6.07;1.60;;;;;;;8.72;100.00;99679.56;5011557;28;20183;-69
2022/09/17 00:28:23;;;;;;;6.50;1.50;;;;;;;8.75;100.00;99686.28;5014102;28;20616;-69
2022/09/17 00:30:48;;;;;;;7.00;1.93;;;;;;;8.80;100.00;99681.72;5006755;28;20232;-68
2022/09/17 00:33:16;;;;;;;6.07;2.10;;;;;;;8.83;100.00;99686.66;5008036;28;20584;-70
2022/09/17 00:35:42;;;;;;;5.83;1.77;;;;;;;8.83;100.00;99687.50;5012091;28;20547;-67
2022/09/17 00:38:07;;;;;;;4.60;1.47;;;;;;;8.67;100.00;99690.06;5015064;28;20265;-69
2022/09/17 00:40:34;;;;;;;5.50;1.47;;;;;;;8.69;100.00;99692.53;5011854;28;20229;-66
2022/09/17 00:42:59;;;;;;;6.70;2.00;;;;;;;8.68;100.00;99691.72;5011292;28;20787;-69
2022/09/17 00:45:26;;;;;;;6.57;1.43;;;;;;;8.59;100.00;99684.50;5023325;28;20187;-68
2022/09/17 00:48:01;;;;;;;4.80;1.60;;;;;;;8.66;100.00;99683.28;5009931;28;20181;-68
2022/09/17 00:50:31;;;;;;;6.90;2.07;;;;;;;8.63;100.00;99686.00;5007770;28;20300;-69
2022/09/17 00:53:06;;;;;;;6.27;2.10;;;;;;;8.58;100.00;99690.53;5011340;28;20197;-67
2022/09/17 00:55:50;;;;;;;7.30;2.07;;;;;;;8.65;100.00;99691.06;5017900;28;20183;-71
2022/09/17 00:58:19;;;;;;;8.23;1.67;;;;;;;8.67;100.00;99697.75;5031629;28;20189;-70
2022/09/17 01:00:46;;;;;;;4.20;1.80;;;;;;;8.56;100.00;99700.88;5006448;28;21144;-67
2022/09/17 01:03:11;;;;;;;4.67;1.47;;;;;;;8.49;100.00;99698.72;5010804;28;20201;-68
2022/09/17 01:05:53;;;;;;;5.53;1.77;;;;;;;8.45;100.00;99704.91;5001901;28;20183;-69
2022/09/17 01:08:40;;;;;;;5.50;2.00;;;;;;;8.46;100.00;99714.22;5012283;28;20194;-68
2022/09/17 01:11:29;;;;;;;4.37;1.73;;;;;;;8.39;100.00;99713.72;5003457;28;20280;-70
2022/09/17 01:14:24;;;;;;;6.93;1.60;;;;;;;8.45;100.00;99704.91;5009736;28;20245;-68
2022/09/17 01:17:04;;;;;;;4.73;1.67;;;;;;;8.45;100.00;99700.59;5020664;28;20203;-68
2022/09/17 01:19:52;;;;;;;3.37;1.47;;;;;;;8.33;100.00;99706.34;5009806;28;20638;-68
2022/09/17 01:22:41;;;;;;;5.77;1.90;;;;;;;8.31;100.00;99701.31;4998331;28;20256;-68
2022/09/17 01:25:09;;;;;;;6.90;1.90;;;;;;;8.40;100.00;99711.06;5020397;28;20637;-68
2022/09/17 01:27:41;;;;;;;6.60;1.83;;;;;;;8.28;100.00;99714.28;5009497;28;20213;-68
2022/09/17 01:30:21;;;;;;;9.40;2.03;;;;;;;8.25;100.00;99724.69;5003160;28;20178;-68
2022/09/17 01:32:52;;;;;;;7.40;1.50;;;;;;;8.33;100.00;99719.16;5021164;28;20194;-69
2022/09/17 01:35:34;;;;;;;4.87;2.10;;;;;;;8.22;100.00;99717.16;5008531;28;20197;-69
2022/09/17 01:38:25;;;;;;;5.77;1.70;;;;;;;8.20;100.00;99714.66;5010716;28;20664;-69
2022/09/17 01:41:09;;;;;;;5.97;1.70;;;;;;;8.18;100.00;99713.91;5005296;28;20229;-69
2022/09/17 01:44:05;;;;;;;4.30;1.67;;;;;;;8.16;100.00;99718.31;5009767;28;20233;-69
2022/09/17 01:46:42;;;;;;;5.73;2.13;;;;;;;8.20;100.00;99711.28;5000603;28;20191;-66
2022/09/17 01:49:10;;;;;;;3.60;1.73;;;;;;;8.19;100.00;99717.31;5026121;28;20181;-69
2022/09/17 01:51:42;;;;;;;8.20;2.00;;;;;;;8.17;100.00;99711.44;5005397;28;20237;-68
2022/09/17 01:54:16;;;;;;;12.30;1.80;;;;;;;8.38;100.00;99712.06;5018532;28;20182;-68
2022/09/17 01:56:48;;;;;;;10.77;1.93;;;;;;;8.32;100.00;99699.56;5013660;28;20233;-69
2022/09/17 01:59:26;;;;;;;8.77;2.00;;;;;;;8.34;100.00;99715.69;5026684;28;20186;-68
2022/09/17 02:01:58;;;;;;;7.90;2.20;;;;;;;8.36;100.00;99713.88;5010734;28;20283;-69
2022/09/17 02:04:34;;;;;;;3.50;1.70;;;;;;;8.41;100.00;99719.63;5010791;28;20683;-68
2022/09/17 02:07:06;;;;;;;6.37;2.13;;;;;;;8.36;100.00;99716.44;5012379;28;20185;-68
2022/09/17 02:09:37;;;;;;;4.83;1.83;;;;;;;8.46;100.00;99724.47;5010761;28;20191;-68
2022/09/17 02:12:08;;;;;;;5.37;1.73;;;;;;;8.52;100.00;99722.47;5016351;28;20308;-68
2022/09/17 02:14:41;;;;;;;7.17;1.73;;;;;;;8.65;100.00;99725.22;5013290;28;20209;-70
2022/09/17 02:17:18;;;;;;;5.17;1.70;;;;;;;8.68;100.00;99717.38;5032660;28;20345;-68
2022/09/17 02:19:44;;;;;;;5.17;1.63;;;;;;;8.75;100.00;99720.44;5024578;28;20224;-70
2022/09/17 02:22:26;;;;;;;7.10;1.77;;;;;;;8.88;100.00;99718.03;5005870;28;20236;-67
2022/09/17 02:25:03;;;;;;;6.47;1.57;;;;;;;8.90;100.00;99723.91;5017098;28;20245;-68
2022/09/17 02:27:44;;;;;;;5.43;1.43;;;;;;;8.95;100.00;99726.25;5016604;28;20193;-67
2022/09/17 02:30:09;;;;;;;8.90;1.77;;;;;;;9.07;100.00;99722.16;5005854;28;20665;-68
2022/09/17 02:32:35;;;;;;;8.70;1.47;;;;;;;9.19;100.00;99719.78;5027585;28;20233;-68
2022/09/17 02:35:00;;;;;;;8.30;2.17;;;;;;;9.19;100.00;99721.50;5021896;28;20187;-68
2022/09/17 02:37:26;;;;;;;2.83;1.40;;;;;;;9.20;100.00;99723.16;5022547;28;20205;-69
2022/09/17 02:39:52;;;;;;;7.03;1.83;;;;;;;9.16;100.00;99716.53;5019987;28;20240;-68
2022/09/17 02:42:39;;;;;;;9.23;1.83;;;;;;;9.18;100.00;99718.13;5016639;28;20311;-68
2022/09/17 02:45:18;;;;;;;3.40;1.50;;;;;;;9.24;100.00;99711.84;5020166;28;20194;-68
2022/09/17 02:48:14;;;;;;;3.63;1.63;;;;;;;9.07;100.00;99710.19;5008359;28;20182;-68
2022/09/17 02:51:07;;;;;;;8.47;2.00;;;;;;;9.18;100.00;99712.97;5009384;28;20244;-68
2022/09/17 02:53:38;;;;;;;5.40;1.80;;;;;;;9.26;100.00;99711.75;5005503;28;20206;-68
2022/09/17 02:56:09;;;;;;;7.13;1.87;;;;;;;9.33;100.00;99715.63;5013896;28;20205;-68
2022/09/17 02:59:12;;;;;;;5.43;1.70;;;;;;;9.22;100.00;99708.50;5014340;28;20329;-67
2022/09/17 03:02:06;;;;;;;7.07;1.83;;;;;;;9.07;100.00;99704.19;4928994;28;20343;-68
2022/09/17 03:04:32;;;;;;;5.87;1.93;;;;;;;9.17;100.00;99713.88;4954194;28;20207;-68
2022/09/17 03:06:59;;;;;;;8.30;1.50;;;;;;;9.17;100.00;99708.75;4972590;28;20228;-68
2022/09/17 03:09:25;;;;;;;6.23;1.60;;;;;;;9.23;100.00;99714.47;4956966;28;20203;-68
2022/09/17 03:11:50;;;;;;;7.97;1.93;;;;;;;9.19;100.00;99711.22;4963039;28;20223;-68
2022/09/17 03:14:15;;;;;;;5.83;1.80;;;;;;;9.17;100.00;99711.31;4971187;28;20342;-69
2022/09/17 03:16:41;;;;;;;4.40;1.90;;;;;;;9.23;100.00;99711.88;4961139;28;20307;-67
2022/09/17 03:19:06;;;;;;;3.90;1.43;;;;;;;9.33;100.00;99718.19;4972252;28;20218;-67
2022/09/17 03:21:31;;;;;;;4.10;1.80;;;;;;;9.30;100.00;99713.22;4961130;28;20721;-66
2022/09/17 03:23:59;;;;;;;4.43;2.07;;;;;;;9.13;100.00;99719.25;4973476;28;20192;-68
2022/09/17 03:26:24;;;;;;;5.87;1.87;;;;;;;9.25;100.00;99717.78;4972336;28;20258;-71
2022/09/17 03:28:50;;;;;;;7.07;1.67;;;;;;;9.22;100.00;99721.34;4972637;28;20312;-67
2022/09/17 03:31:15;;;;;;;8.00;1.83;;;;;;;9.18;100.00;99723.25;4927230;28;20254;-67
2022/09/17 03:33:40;;;;;;;6.00;2.20;;;;;;;9.38;100.00;99721.31;4967513;28;20559;-69
2022/09/17 03:36:06;;;;;;;4.63;1.93;;;;;;;9.52;100.00;99726.50;4972336;28;20262;-69
2022/09/17 03:38:33;;;;;;;6.87;1.80;;;;;;;9.45;100.00;99721.78;4992305;28;20293;-67
2022/09/17 03:41:00;;;;;;;6.00;1.40;;;;;;;9.44;100.00;99720.97;5010732;28;20963;-67
2022/09/17 03:43:26;;;;;;;4.97;1.80;;;;;;;9.35;100.00;99716.34;5030515;28;20234;-68
2022/09/17 03:45:52;;;;;;;2.47;1.40;;;;;;;9.36;100.00;99721.41;5031924;28;20189;-67
2022/09/17 03:48:17;;;;;;;4.83;1.90;;;;;;;9.42;100.00;99712.53;5028951;28;20224;-67
2022/09/17 03:50:43;;;;;;;5.17;2.07;;;;;;;9.42;100.00;99727.13;5013500;28;20309;-68
2022/09/17 03:53:08;;;;;;;4.17;1.70;;;;;;;9.49;100.00;99723.31;5013084;28;20190;-67
2022/09/17 03:55:37;;;;;;;4.63;2.07;;;;;;;9.56;100.00;99729.72;5015325;28;20179;-67
2022/09/17 03:58:02;;;;;;;5.07;1.70;;;;;;;9.52;100.00;99728.25;5021275;28;20204;-67
2022/09/17 04:00:27;;;;;;;3.40;1.53;;;;;;;9.57;100.00;99733.94;5015778;28;20769;-67
2022/09/17 04:02:53;;;;;;;6.37;2.00;;;;;;;9.48;100.00;99737.03;5020251;28;20187;-67
2022/09/17 04:05:18;;;;;;;7.93;2.07;;;;;;;9.55;100.00;99734.94;5022129;28;20194;-67
2022/09/17 04:07:43;;;;;;;5.30;1.80;;;;;;;9.45;100.00;99739.78;5011936;28;20186;-67
2022/09/17 04:10:09;;;;;;;6.00;1.77;;;;;;;9.58;100.00;99747.63;5016751;28;20651;-66
2022/09/17 04:12:35;;;;;;;5.43;1.80;;;;;;;9.71;100.00;99747.75;5013193;28;20210;-66
2022/09/17 04:15:00;;;;;;;3.47;1.40;;;;;;;9.68;100.00;99748.75;5015402;28;20184;-67
2022/09/17 04:17:26;;;;;;;3.90;1.60;;;;;;;9.68;100.00;99748.75;5028286;28;20677;-68
2022/09/17 04:19:52;;;;;;;6.70;1.77;;;;;;;9.66;100.00;99750.56;5026173;28;20270;-67
2022/09/17 04:22:18;;;;;;;5.53;1.97;;;;;;;9.57;100.00;99746.78;5011843;28;20221;-67
2022/09/17 04:24:43;;;;;;;4.80;1.70;;;;;;;9.65;100.00;99744.63;5011939;28;20240;-67
2022/09/17 04:27:09;;;;;;;5.43;1.97;;;;;;;9.65;100.00;99754.91;5011811;28;20258;-67
2022/09/17 04:29:34;;;;;;;6.30;1.57;;;;;;;9.67;100.00;99754.81;5023511;28;20202;-67
2022/09/17 04:31:59;;;;;;;4.83;1.80;;;;;;;9.62;100.00;99755.06;5004310;28;20229;-68
2022/09/17 04:34:25;;;;;;;3.13;1.50;;;;;;;9.64;100.00;99748.09;5011519;28;20290;-68
2022/09/17 04:36:50;;;;;;;6.23;2.03;;;;;;;9.55;100.00;99750.34;5011226;28;20297;-69
2022/09/17 04:39:16;;;;;;;5.97;1.77;;;;;;;9.49;100.00;99746.41;5018490;28;20190;-68
2022/09/17 04:41:42;;;;;;;5.37;1.67;;;;;;;9.63;100.00;99745.63;5005489;28;20731;-70
2022/09/17 04:44:07;;;;;;;4.40;1.50;;;;;;;9.54;100.00;99749.53;5021277;28;20210;-69
2022/09/17 04:46:32;;;;;;;7.17;1.90;;;;;;;9.48;100.00;99753.25;5015374;28;20198;-68
2022/09/17 04:48:57;;;;;;;4.33;1.90;;;;;;;9.54;100.00;99757.25;4999329;28;20194;-69
2022/09/17 04:51:23;;;;;;;5.57;1.67;;;;;;;9.44;100.00;99768.91;5011230;28;20308;-69
2022/09/17 04:53:48;;;;;;;2.83;1.40;;;;;;;9.40;100.00;99765.69;5010301;28;20523;-68
2022/09/17 04:56:14;;;;;;;5.43;1.90;;;;;;;9.46;100.00;99769.66;5010040;28;20677;-68
2022/09/17 04:58:39;;;;;;;2.70;1.57;;;;;;;9.40;100.00;99770.81;5011554;28;20198;-68
2022/09/17 05:01:05;;;;;;;4.47;2.10;;;;;;;9.37;100.00;99774.38;5004196;28;20237;-68
2022/09/17 05:03:30;;;;;;;5.83;2.00;;;;;;;9.38;100.00;99775.22;5019690;28;20657;-67
2022/09/17 05:05:55;;;;;;;8.20;2.13;;;;;;;9.25;100.00;99776.81;5010619;28;20269;-67
2022/09/17 05:08:22;;;;;;;7.73;2.10;;;;;;;9.30;100.00;99782.50;5013225;28;20194;-68
2022/09/17 05:10:49;;;;;;;9.43;2.13;;;;;;;9.26;100.00;99792.13;5008830;28;20767;-68
2022/09/17 05:13:14;;;;;;;6.57;2.40;;;;;;;9.29;100.00;99797.09;5014710;28;20449;-68
2022/09/17 05:15:39;;;;;;;3.63;2.00;;;;;;;9.29;100.00;99802.22;5009993;28;20191;-68
2022/09/17 05:18:05;;;;;;;6.50;2.23;;;;;;;9.37;100.00;99796.69;5011089;28;20269;-67
2022/09/17 05:20:30;;;;;;;5.47;1.90;;;;;;;9.32;100.00;99796.91;5001933;28;20283;-69
2022/09/17 05:22:55;;;;;;;8.23;2.23;;;;;;;9.40;100.00;99791.34;5020271;28;20195;-67
2022/09/17 05:25:24;;;;;;;5.97;1.93;;;;;;;9.47;100.00;99797.81;5010018;28;20213;-69
2022/09/17 05:27:51;;;;;;;9.73;2.40;;;;;;;9.31;100.00;99795.25;5012696;28;20214;-67
2022/09/17 05:30:16;;;;;;;4.97;2.13;;;;;;;9.26;100.00;99792.13;5001047;28;20198;-68
2022/09/17 05:32:42;;;;;;;5.90;2.73;;;;;;;9.30;100.00;99788.50;5010427;28;20190;-69
2022/09/17 05:35:08;;;;;;;5.93;2.17;;;;;;;9.39;100.00;99788.88;5010023;28;20720;-67
2022/09/17 05:37:34;;;;;;;4.93;2.33;;;;;;;9.54;100.00;99788.06;5013666;28;20193;-66
2022/09/17 05:40:01;;;;;;;3.80;1.97;;;;;;;9.49;100.00;99797.75;5016650;28;20911;-67
2022/09/17 05:42:26;;;;;;;5.50;2.20;;;;;;;9.63;100.00;99800.38;5019249;28;20378;-70
2022/09/17 05:44:51;;;;;;;5.57;1.93;;;;;;;9.71;100.00;99799.94;5027995;28;20612;-66
2022/09/17 05:47:16;;;;;;;6.10;2.27;;;;;;;9.53;100.00;99797.47;5018078;28;20187;-66
2022/09/17 05:49:42;;;;;;;5.53;2.00;;;;;;;9.61;100.00;99809.06;5016014;28;20183;-67
2022/09/17 05:52:07;;;;;;;8.70;1.97;;;;;;;9.58;100.00;99816.97;5001775;28;20661;-66
2022/09/17 05:54:32;;;;;;;9.87;2.30;;;;;;;9.61;100.00;99824.47;5024616;28;20231;-67
2022/09/17 05:56:58;;;;;;;6.63;2.00;;;;;;;9.68;100.00;99824.06;5019902;28;20237;-67
2022/09/17 05:59:23;;;;;;;3.60;1.90;;;;;;;9.69;100.00;99824.91;5013907;28;20650;-67
2022/09/17 06:01:49;;;;;;;8.50;2.47;;;;;;;9.59;100.00;99823.72;5016156;28;20226;-68
2022/09/17 06:04:16;;;;;;;3.73;2.00;;;;;;;9.86;100.00;99834.25;5020747;28;20205;-68
2022/09/17 06:06:42;;;;;;;4.97;2.00;;;;;;;10.01;100.00;99842.84;5021228;28;20226;-68
2022/09/17 06:09:08;;;;;;;10.40;2.73;;;;;;;10.25;100.00;99830.31;5016248;28;20210;-68
2022/09/17 06:11:34;;;;;;;5.87;2.30;;;;;;;10.39;100.00;99834.69;5014429;28;20220;-68
2022/09/17 06:14:00;;;;;;;6.23;2.13;;;;;;;10.61;100.00;99826.53;5028026;28;20189;-68
2022/09/17 06:16:26;;;;;;;6.47;2.37;;;;;;;10.61;100.00;99830.88;5009800;28;20205;-68
2022/09/17 06:18:51;;;;;;;7.73;2.17;;;;;;;10.74;100.00;99825.81;5006154;28;20186;-69
2022/09/17 06:21:18;;;;;;;9.50;2.63;;;;;;;10.61;100.00;99828.31;5005337;28;20237;-68
2022/09/17 06:23:44;;;;;;;5.57;1.90;;;;;;;10.65;100.00;99824.63;5002941;28;20547;-68
2022/09/17 06:26:10;;;;;;;6.50;2.30;;;;;;;10.78;100.00;99829.88;5017956;28;20594;-67
2022/09/17 06:28:36;;;;;;;8.03;2.23;;;;;;;10.83;100.00;99833.00;5012303;28;20305;-67
2022/09/17 06:31:03;;;;;;;7.57;1.93;;;;;;;10.56;100.00;99831.13;5003292;28;20317;-68
2022/09/17 06:33:30;;;;;;;11.87;1.97;;;;;;;10.57;100.00;99829.41;5021096;28;20190;-67
2022/09/17 06:35:59;;;;;;;8.50;2.30;;;;;;;10.87;100.00;99836.22;5019777;28;20192;-68
2022/09/17 06:38:29;;;;;;;9.10;1.80;;;;;;;11.11;100.00;99823.59;5020812;28;20184;-68
2022/09/17 06:40:55;;;;;;;5.63;1.93;;;;;;;11.26;100.00;99826.97;5014059;28;20312;-68
2022/09/17 06:43:21;;;;;;;6.73;2.07;;;;;;;11.78;100.00;99825.44;5014520;28;20306;-68
2022/09/17 06:45:57;;;;;;;7.50;2.17;;;;;;;12.73;100.00;99828.69;5014937;28;20200;-69
2022/09/17 06:48:24;;;;;;;9.70;2.00;;;;;;;14.20;95.21;99823.56;5013339;28;20183;-69
2022/09/17 06:50:50;;;;;;;10.47;1.87;;;;;;;14.26;87.58;99821.44;5013504;28;20229;-69
2022/09/17 06:53:16;;;;;;;6.40;2.27;;;;;;;13.91;89.40;99832.63;5018458;28;20185;-68
2022/09/17 06:55:41;;;;;;;7.67;2.20;;;;;;;13.90;92.03;99844.72;5014371;28;20193;-70
2022/09/17 06:58:06;;;;;;;7.30;2.47;;;;;;;14.09;90.26;99841.63;5022025;28;20210;-68
2022/09/17 07:00:32;;;;;;;6.33;2.00;;;;;;;13.33;93.96;99844.38;5007916;28;20230;-68
2022/09/17 07:02:59;;;;;;;7.93;1.70;;;;;;;13.02;97.74;99840.53;5031157;28;20185;-68
2022/09/17 07:05:26;;;;;;;5.03;1.83;;;;;;;13.12;97.74;99856.22;5017194;28;20214;-67
2022/09/17 07:07:51;;;;;;;6.57;2.97;;;;;;;12.84;100.00;99861.53;5023538;28;20191;-68
2022/09/17 07:10:17;;;;;;;6.47;2.70;;;;;;;13.08;100.00;99853.03;5020221;28;20187;-68
2022/09/17 07:12:42;;;;;;;5.77;1.60;;;;;;;12.91;100.00;99855.03;5028844;28;20178;-68
2022/09/17 07:15:11;;;;;;;7.83;2.03;;;;;;;13.35;99.13;99850.28;5011359;28;20273;-67
2022/09/17 07:17:39;;;;;;;5.63;2.10;;;;;;;13.67;96.43;99848.97;5027951;28;20572;-68
2022/09/17 07:20:05;;;;;;;6.70;2.30;;;;;;;13.62;92.83;99856.22;5016408;28;20182;-67
2022/09/17 07:22:30;;;;;;;7.00;2.10;;;;;;;13.33;96.48;99852.13;5013206;28;20194;-67
2022/09/17 07:24:55;;;;;;;6.10;2.00;;;;;;;13.14;97.99;99854.38;5014037;28;20194;-67
2022/09/17 07:27:21;;;;;;;9.80;2.70;;;;;;;13.03;100.00;99844.78;5014868;28;20202;-68
2022/09/17 07:29:46;;;;;;;10.60;2.57;;;;;;;12.98;98.83;99850.25;5026367;28;20264;-69
2022/09/17 07:32:11;;;;;;;9.33;2.27;;;;;;;13.58;94.95;99845.28;4971914;28;20608;-68
2022/09/17 07:34:37;;;;;;;9.00;2.00;;;;;;;14.94;82.67;99855.22;5010853;28;20642;-68
2022/09/17 07:37:02;;;;;;;10.60;2.57;;;;;;;16.43;70.40;99841.66;5019335;28;20213;-68
2022/09/17 07:39:27;;;;;;;5.03;1.97;;;;;;;16.81;65.83;99845.41;5021429;28;20180;-68
2022/09/17 07:41:53;;;;;;;8.60;2.30;;;;;;;17.21;62.36;99849.00;5025532;28;20673;-67
2022/09/17 07:44:18;;;;;;;7.07;1.90;;;;;;;17.04;63.27;99859.09;5016388;28;20626;-69
2022/09/17 07:46:43;;;;;;;8.50;2.27;;;;;;;17.49;63.12;99857.00;5017113;28;20225;-68
2022/09/17 07:49:08;;;;;;;6.00;2.07;;;;;;;17.54;60.81;99857.44;5019340;28;20245;-68
2022/09/17 07:51:34;;;;;;;4.43;1.43;;;;;;;16.84;64.26;99858.13;5016953;28;20367;-68
2022/09/17 07:54:01;;;;;;;5.27;1.90;;;;;;;16.45;67.34;99860.56;5025956;28;20268;-68
2022/09/17 07:56:26;;;;;;;9.47;2.63;;;;;;;15.75;71.52;99857.53;5019961;28;20228;-68
2022/09/17 07:58:52;;;;;;;8.20;2.50;;;;;;;15.90;72.25;99852.91;5025834;28;20634;-67
2022/09/17 08:01:19;;;;;;;6.33;2.07;;;;;;;15.80;70.99;99852.78;5023615;28;20312;-66
2022/09/17 08:03:50;;;;;;;7.67;2.07;;;;;;;16.98;65.94;99850.97;5024206;28;20221;-68
2022/09/17 08:06:19;;;;;;;3.63;1.60;;;;;;;17.58;62.26;99861.41;5020357;28;20194;-67
2022/09/17 08:08:44;;;;;;;5.07;1.77;;;;;;;17.13;62.97;99861.81;5012598;28;20209;-68
2022/09/17 08:11:15;;;;;;;6.23;2.03;;;;;;;16.35;67.47;99867.44;5009391;28;20642;-69
2022/09/17 08:13:41;;;;;;;6.63;2.10;;;;;;;16.24;69.02;99871.75;5007348;28;20704;-73
2022/09/17 08:16:11;;;;;;;8.10;2.30;;;;;;;15.89;72.75;99866.81;5008379;28;20210;-69
2022/09/17 08:18:37;;;;;;;6.97;1.80;;;;;;;16.73;66.32;99866.00;5011546;28;20236;-68
2022/09/17 08:21:04;;;;;;;5.60;1.90;;;;;;;17.66;61.51;99877.16;5007873;28;20230;-70
2022/09/17 08:23:30;;;;;;;6.40;2.03;;;;;;;17.53;57.99;99869.59;5011135;28;20277;-68
2022/09/17 08:25:58;;;;;;;8.33;1.93;;;;;;;17.40;60.57;99866.41;5010993;28;20269;-69
2022/09/17 08:28:25;;;;;;;7.37;2.07;;;;;;;16.74;62.76;99870.25;5010070;28;20202;-67
2022/09/17 08:30:52;;;;;;;7.30;2.03;;;;;;;15.84;71.98;99859.44;5008235;28;20222;-68
2022/09/17 08:33:18;;;;;;;6.17;1.83;;;;;;;16.22;75.75;99859.84;5020653;28;20193;-68
2022/09/17 08:35:51;;;;;;;8.57;1.90;;;;;;;16.23;69.84;99864.91;5011572;28;20214;-69
2022/09/17 08:38:17;;;;;;;6.90;1.63;;;;;;;15.59;74.90;99861.38;5020104;28;20195;-68
2022/09/17 08:40:53;;;;;;;9.00;2.43;;;;;;;15.41;76.82;99865.41;5002738;28;20228;-69
2022/09/17 08:43:19;;;;;;;7.27;1.80;;;;;;;15.66;73.77;99866.88;5007978;28;20235;-68
2022/09/17 08:45:52;;;;;;;7.97;1.77;;;;;;;17.21;66.97;99865.41;5011641;28;20593;-70
2022/09/17 08:48:18;;;;;;;5.63;2.00;;;;;;;18.40;60.45;99859.34;5012492;28;20178;-60
2022/09/17 08:50:43;;;;;;;5.70;2.10;;;;;;;18.87;55.74;99861.94;5007554;28;20578;-61
2022/09/17 08:53:50;;;;;;;5.77;1.60;;;;;;;18.01;57.48;99865.41;5020475;28;20233;-61
2022/09/17 08:56:17;;;;;;;7.40;1.87;;;;;;;17.70;56.19;99869.88;4994258;28;20261;-61
2022/09/17 08:59:09;;;;;;;6.57;1.77;;;;;;;16.59;63.25;99865.41;5011534;28;20194;-60
2022/09/17 09:02:10;;;;;;;6.33;1.60;;;;;;;18.72;53.54;99858.16;5011545;28;20226;-60
2022/09/17 09:04:57;;;;;;;6.77;1.70;;;;;;;18.44;52.62;99858.09;4986323;28;20201;-62
2022/09/17 09:07:38;;;;;;;8.47;2.10;;;;;;;18.33;52.45;99861.69;5012154;28;20769;-60
2022/09/17 09:10:12;;;;;;;3.63;1.80;;;;;;;19.25;48.74;99854.13;5010624;28;20711;-60
2022/09/17 09:12:39;;;;;;;3.27;1.57;;;;;;;20.42;46.20;99857.59;5013453;28;20210;-61
2022/09/17 09:15:24;;;;;;;6.30;1.67;;;;;;;20.41;45.76;99861.16;5010613;28;20179;-60
2022/09/17 09:17:50;;;;;;;6.00;1.90;;;;;;;19.55;46.82;99853.91;5008394;28;20203;-62
2022/09/17 09:20:37;;;;;;;5.40;1.70;;;;;;;18.62;47.70;99854.75;4996820;28;20187;-61
2022/09/17 09:23:14;;;;;;;8.63;2.33;;;;;;;18.81;48.60;99862.50;5017519;28;20190;-62
2022/09/17 09:25:56;;;;;;;7.60;1.70;;;;;;;17.51;54.13;99871.50;5011021;28;20194;-59
2022/09/17 09:28:38;;;;;;;6.30;1.60;;;;;;;17.09;59.41;99871.66;5010084;28;20577;-60
2022/09/17 09:31:16;;;;;;;7.03;1.50;;;;;;;15.65;60.92;99880.78;5007864;28;20300;-60
2022/09/17 09:33:42;;;;;;;6.67;1.80;;;;;;;15.15;63.59;99894.16;5013673;28;20210;-62
2022/09/17 09:36:14;;;;;;;6.40;1.60;;;;;;;14.80;69.81;99898.50;5011449;28;20669;-61
2022/09/17 09:38:50;;;;;;;5.13;1.60;;;;;;;14.34;78.77;99918.25;5013266;28;20534;-61
2022/09/17 09:41:44;;;;;;;4.73;1.60;;;;;;;13.14;93.85;99931.84;5007260;28;20234;-62
2022/09/17 09:44:11;;;;;;;4.70;1.57;;;;;;;12.55;100.00;99938.31;5010034;28;20191;-61
2022/09/17 09:47:04;;;;;;;6.00;1.67;;;;;;;12.16;100.00;99945.13;5011497;28;20182;-59
2022/09/17 09:49:45;;;;;;;5.20;1.47;;;;;;;11.66;100.00;99932.69;5011445;28;20183;-60
2022/09/17 09:52:31;;;;;;;5.07;1.20;;;;;;;11.48;100.00;99929.50;5010412;28;20229;-63
2022/09/17 09:55:28;;;;;;;2.40;0.90;;;;;;;11.46;100.00;99926.19;4994346;28;20187;-62
2022/09/17 09:58:10;;;;;;;2.10;1.07;;;;;;;11.74;100.00;99930.47;4996705;28;20210;-62
2022/09/17 10:00:36;;;;;;;2.87;1.13;;;;;;;11.99;100.00;99941.84;4993191;28;20227;-62
2022/09/17 10:03:11;;;;;;;1.90;1.03;;;;;;;12.19;100.00;99929.44;5013606;28;20191;-62
2022/09/17 10:05:37;;;;;;;3.63;1.40;;;;;;;12.49;100.00;99928.38;5002282;28;20186;-61
2022/09/17 10:08:13;;;;;;;2.57;1.00;;;;;;;12.89;100.00;99920.59;5008849;28;20197;-72
2022/09/17 10:10:57;;;;;;;4.67;1.23;;;;;;;13.17;100.00;99914.41;4994541;28;20225;-72
2022/09/17 10:13:23;;;;;;;2.30;1.53;;;;;;;13.56;100.00;99922.91;5021393;28;20248;-73
2022/09/17 10:15:48;;;;;;;3.37;1.43;;;;;;;13.97;100.00;99915.75;5007471;28;20191;-72
2022/09/17 10:18:19;;;;;;;1.63;0.67;;;;;;;14.26;98.64;99912.81;5007359;28;20207;-73
2022/09/17 10:20:58;;;;;;;3.27;0.97;;;;;;;14.42;93.40;99907.34;5000993;28;20611;-76
2022/09/17 10:23:30;;;;;;;3.77;0.83;;;;;;;14.34;95.22;99910.50;5007749;28;20186;-72
2022/09/17 10:25:56;;;;;;;6.53;1.80;;;;;;;14.48;95.04;99901.72;5008191;28;22247;-71
2022/09/17 10:28:33;;;;;;;3.77;1.10;;;;;;;14.63;90.52;99898.94;5011422;28;20233;-71
2022/09/17 10:31:03;;;;;;;4.23;1.20;;;;;;;14.68;93.80;99896.84;4996580;28;20740;-70
2022/09/17 10:33:31;;;;;;;3.10;1.20;;;;;;;15.17;91.31;99898.28;5002309;28;20186;-72
2022/09/17 10:35:58;;;;;;;3.73;1.33;;;;;;;15.37;85.31;99890.75;5007237;28;20189;-72
2022/09/17 10:38:34;;;;;;;4.70;1.70;;;;;;;15.77;85.45;99894.56;5010733;28;20182;-71
2022/09/17 10:41:26;;;;;;;6.13;1.30;;;;;;;15.85;86.66;99904.34;4996686;28;20307;-70
2022/09/17 10:43:51;;;;;;;4.57;1.60;;;;;;;15.77;86.65;99897.13;5010950;28;20277;-71
2022/09/17 10:46:25;;;;;;;5.43;1.67;;;;;;;15.81;88.54;99886.41;5008736;28;20202;-70
2022/09/17 10:49:30;;;;;;;6.47;2.27;;;;;;;15.39;80.36;99885.44;5007067;28;20277;-70
2022/09/17 10:52:10;;;;;;;7.37;2.60;;;;;;;14.88;75.73;99882.38;5002758;28;20244;-70
2022/09/17 10:54:36;;;;;;;5.10;1.83;;;;;;;14.98;82.14;99882.50;5008330;28;20325;-71
2022/09/17 10:57:04;;;;;;;9.83;1.70;;;;;;;15.40;79.39;99874.13;5007336;28;20305;-71
2022/09/17 10:59:57;;;;;;;5.53;1.60;;;;;;;15.87;70.91;99871.34;5002156;28;20183;-71
2022/09/17 11:02:44;;;;;;;9.93;2.07;;;;;;;16.00;70.28;99877.19;4988075;28;20241;-73
2022/09/17 11:05:25;;;;;;;4.57;1.80;;;;;;;16.13;64.86;99870.03;5008159;28;20187;-70
2022/09/17 11:08:04;;;;;;;7.23;2.07;;;;;;;16.28;66.22;99872.31;5007294;28;20182;-74
2022/09/17 11:10:44;;;;;;;7.20;1.87;;;;;;;16.41;65.25;99870.38;5010250;28;20305;-72
2022/09/17 11:13:25;;;;;;;6.60;2.10;;;;;;;16.18;60.94;99867.06;5003573;28;20183;-72
2022/09/17 11:15:56;;;;;;;7.67;1.57;;;;;;;15.92;64.01;99859.63;5000257;28;20237;-70
2022/09/17 11:18:35;;;;;;;3.50;1.33;;;;;;;15.31;63.90;99867.91;5002131;28;20288;-70
2022/09/17 11:21:21;;;;;;;6.20;1.70;;;;;;;15.28;65.51;99871.56;4999710;28;20229;-71
2022/09/17 11:23:57;;;;;;;6.17;2.00;;;;;;;15.32;65.42;99860.00;5003942;28;20211;-71
2022/09/17 11:26:34;;;;;;;7.87;1.60;;;;;;;14.89;64.36;99863.31;5009706;28;20188;-72
2022/09/17 11:29:08;;;;;;;6.50;1.37;;;;;;;14.83;68.77;99862.03;5010566;28;20202;-70
2022/09/17 11:31:39;;;;;;;4.57;2.00;;;;;;;15.23;67.62;99858.13;4973089;28;20227;-72
2022/09/17 11:34:21;;;;;;;3.57;1.67;;;;;;;15.11;64.58;99851.31;5009272;28;20194;-71
2022/09/17 11:37:11;;;;;;;5.87;1.30;;;;;;;15.10;64.23;99845.31;5013446;28;20222;-72
2022/09/17 11:39:54;;;;;;;4.23;1.20;;;;;;;15.29;60.24;99841.28;5011791;28;20187;-72
2022/09/17 11:42:42;;;;;;;6.17;1.33;;;;;;;15.41;61.24;99837.72;4998136;28;20242;-71
2022/09/17 11:45:17;;;;;;;4.77;1.47;;;;;;;15.35;60.14;99843.38;5018881;28;20513;-72
2022/09/17 11:47:55;;;;;;;7.77;2.03;;;;;;;15.25;59.17;99832.91;5018669;28;20182;-72
2022/09/17 11:50:26;;;;;;;5.87;1.60;;;;;;;15.29;59.51;99830.91;5011394;28;20185;-72